• Join FlightAware (Why Join?)
  • Login
  • US Flag GB Flag 
21:45 EST


 

Airport Tracker/Info


-or-


 

Live Flight TrackerFlight Track Log ✈ AFL150 ✈ 09-Jul-2013 ✈ UUEE / SVO - MUHA / HAV

Flight Track Log - Related Links

Times and Time Zones

All times are in EDT time to prevent confusion due to time zone crossing. See the AFL150 flight status page for this flight to view local times or setup timezone preferences in your user account.

Time Position Orientation Groundspeed Altitude Reporting Facility
EDT Latitude Longitude Course Direction KTS MPH feet Rate Location/Type
12:48 63.9600 -50.2680 250° West 489 563 34,000  Level FlightAware
12:49 63.9290 -50.4620 250° West 488 562 34,000  Level FlightAware
12:50 63.8940 -50.6810 250° West 488 562 34,000  Level FlightAware
12:50 63.8650 -50.8650 250° West 486 559 34,000  Level FlightAware
12:51 63.8270 -51.0960 250° West 485 558 34,000  Level FlightAware
12:52 63.7920 -51.3100 250° West 484 557 34,000  Level FlightAware
12:52 63.7610 -51.4990 250° West 486 559 34,000  Level FlightAware
12:53 63.7320 -51.6740 250° West 485 558 34,000  Level FlightAware
12:54 63.7000 -51.8630 249° West 484 557 34,000  Level FlightAware
12:54 63.6660 -52.0630 249° West 485 558 34,000  Level FlightAware
12:55 63.6360 -52.2350 249° West 484 557 34,000  Level FlightAware
12:56 63.6040 -52.4230 249° West 483 556 34,000  Level FlightAware
12:56 63.5710 -52.6100 248° West 481 554 34,000  Level FlightAware
12:57 63.5360 -52.8090 249° West 480 552 34,000  Level FlightAware
12:58 63.5020 -52.9940 248° West 478 550 34,000  Level FlightAware
12:59 63.4650 -53.1990 248° West 481 554 34,000  Level FlightAware
12:59 63.4320 -53.3800 248° West 483 556 34,000  Level FlightAware
13:00 63.3880 -53.6200 248° West 485 558 34,000  Level FlightAware
13:01 63.3520 -53.8140 248° West 487 560 34,000  Level FlightAware
13:01 63.3210 -53.9800 247° West 488 562 34,000  Level FlightAware
13:02 63.2770 -54.2090 247° West 487 560 34,000  Level FlightAware
13:03 63.2370 -54.4130 247° West 487 560 34,000  Level FlightAware
13:04 63.2090 -54.5520 246° West 487 560 34,000  Level FlightAware
13:04 63.1710 -54.7390 246° West 487 560 34,000  Level FlightAware
13:05 63.1440 -54.8740 246° West 487 560 34,000  Level FlightAware
13:06 63.1150 -55.0170 246° West 487 560 34,000  Level FlightAware
13:06 63.0770 -55.2070 246° West 487 560 34,000  Level FlightAware
13:07 63.0480 -55.3500 246° West 487 560 34,000  Level FlightAware
13:08 63.0200 -55.4890 246° West 487 560 34,000  Level FlightAware
13:09 62.9720 -55.7270 246° West 487 560 34,000  Level FlightAware
13:09 62.9440 -55.8660 246° West 487 560 34,000  Level FlightAware
13:10 62.9050 -56.0540 246° West 487 560 34,000  Level FlightAware
13:11 62.8780 -56.1890 246° West 487 560 34,000  Level FlightAware
13:11 62.8420 -56.3650 246° West 487 560 34,000  Level FlightAware
13:12 62.8060 -56.5410 246° West 487 560 34,000  Level FlightAware
13:13 62.6667 -56.8667 215° Southwest 240 276 34,000  Level Montreal Center
13:14 62.6167 -57.1000 245° Southwest 450 518 34,000  Level Montreal Center
13:15 62.5740 -56.9026 216° Southwest  Level Estimated
13:15 62.5333 -57.3667 236° Southwest 480 552 34,000  Level Montreal Center
13:16 62.4714 -57.0604 215° Southwest  Level Estimated
13:16 62.4833 -57.6333 248° West 490 564 34,000  Level Montreal Center
13:17 62.3685 -57.2170 215° Southwest  Level Estimated
13:17 62.3500 -57.9333 226° Southwest 500 575 34,000  Level Montreal Center
13:18 62.2656 -57.3726 215° Southwest  Level Estimated
13:18 62.3333 -58.1167 259° West 470 541 34,000  Level Montreal Center
13:19 62.2667 -58.3833 242° Southwest 480 552 34,000  Level Montreal Center
13:20 62.1833 -58.6167 233° Southwest 490 564 34,000  Level Montreal Center
13:21 62.1333 -58.8667 247° West 480 552 34,000  Level Montreal Center
13:22 62.0667 -59.0833 237° Southwest 480 552 34,000  Level Montreal Center
13:23 61.9833 -59.3500 236° Southwest 490 564 34,000  Level Montreal Center
13:24 61.9167 -59.6000 241° Southwest 490 564 34,000  Level Montreal Center
13:25 61.8667 -59.7833 240° Southwest 480 552 34,000  Level Montreal Center
13:26 61.7833 -60.0333 235° Southwest 480 552 34,000  Level Montreal Center
13:27 61.7167 -60.2500 237° Southwest 480 552 34,000  Level Montreal Center
13:28 61.6333 -60.5000 235° Southwest 480 552 34,000  Level Montreal Center
13:29 61.5833 -60.7500 247° West 480 552 34,000  Level Montreal Center
13:30 61.5000 -60.9667 231° Southwest 480 552 34,000  Level Montreal Center
13:31 61.4333 -61.2167 241° Southwest 480 552 34,000  Level Montreal Center
13:32 61.3667 -61.4333 237° Southwest 470 541 34,000  Level Montreal Center
13:33 61.2833 -61.6667 233° Southwest 470 541 34,000  Level Montreal Center
13:34 61.2000 -61.8833 231° Southwest 470 541 34,000  Level Montreal Center
13:35 61.1333 -62.1333 241° Southwest 470 541 34,000  Level Montreal Center
13:36 61.0667 -62.3333 235° Southwest 470 541 34,000  Level Montreal Center
13:37 60.9833 -62.5833 236° Southwest 470 541 34,000  Level Montreal Center
13:38 60.9000 -62.8167 234° Southwest 470 541 34,000  Level Montreal Center
13:39 60.8333 -63.0667 241° Southwest 470 541 34,000  Level Montreal Center
13:40 60.7500 -63.2667 230° Southwest 480 552 34,000  Level Montreal Center
13:41 60.6833 -63.5000 240° Southwest 480 552 34,000  Level Montreal Center
13:42 60.6000 -63.7167 232° Southwest 470 541 34,000  Level Montreal Center
13:43 60.5333 -63.9333 238° Southwest 470 541 34,000  Level Montreal Center
13:44 60.4500 -64.1500 232° Southwest 470 541 34,000  Level Montreal Center
13:45 60.3667 -64.3833 234° Southwest 470 541 34,000  Level Montreal Center
13:46 60.2833 -64.5833 230° Southwest 470 541 34,000  Level Montreal Center
13:47 60.2167 -64.8000 238° Southwest 470 541 34,000  Level Montreal Center
13:48 60.1333 -65.0000 230° Southwest 470 541 34,000  Level Montreal Center
13:49 60.0500 -65.2000 230° Southwest 470 541 34,000  Level Montreal Center
13:50 59.9333 -65.3667 216° Southwest 480 552 34,000  Level Montreal Center
13:51 59.8500 -65.5667 230° Southwest 490 564 34,000  Level Montreal Center
13:52 59.7500 -65.7333 220° Southwest 490 564 34,000  Level Montreal Center
13:53 59.6333 -65.9000 216° Southwest 490 564 34,000  Level Montreal Center
13:54 59.5333 -66.1000 225° Southwest 480 552 34,000  Level Montreal Center
13:55 59.4333 -66.2667 220° Southwest 480 552 34,000  Level Montreal Center
13:56 59.3333 -66.4167 217° Southwest 480 552 34,000  Level Montreal Center
13:57 59.2333 -66.6167 226° Southwest 480 552 34,000  Level Montreal Center
13:58 59.1333 -66.7667 218° Southwest 480 552 34,000  Level Montreal Center
13:59 59.0167 -66.9333 216° Southwest 480 552 34,000  Level Montreal Center
14:00 58.9167 -67.1167 223° Southwest 480 552 34,000  Level Montreal Center
14:01 58.8167 -67.2833 221° Southwest 480 552 34,000  Level Montreal Center
14:02 58.7167 -67.4333 218° Southwest 470 541 34,000  Level Montreal Center
14:03 58.6000 -67.5833 214° Southwest 470 541 34,000  Level Montreal Center
14:04 58.5167 -67.7333 223° Southwest 470 541 34,000  Level Montreal Center
14:05 58.4167 -67.9333 226° Southwest 470 541 34,000  Level Montreal Center
14:06 58.3167 -68.0667 215° Southwest 460 529 34,000  Level Montreal Center
14:07 58.2167 -68.2167 218° Southwest 460 529 34,000  Level Montreal Center
14:08 58.1167 -68.4000 224° Southwest 450 518 34,000  Level Montreal Center
14:09 57.9667 -68.6000 215° Southwest 460 529 34,000  Level Montreal Center
14:10 57.8500 -68.7500 214° Southwest 460 529 34,000  Level Montreal Center
14:11 57.7333 -68.9000 214° Southwest 460 529 34,000  Level Montreal Center
14:12 57.6500 -69.0000 213° Southwest 460 529 34,000  Level Montreal Center
14:13 57.5333 -69.1500 215° Southwest 460 529 34,000  Level Montreal Center
14:14 57.4333 -69.3000 219° Southwest 460 529 34,000  Level Montreal Center
14:15 57.3333 -69.4500 219° Southwest 460 529 34,000  Level Montreal Center
14:16 57.2333 -69.5833 216° Southwest 460 529 34,000  Level Montreal Center
14:17 57.1167 -69.7000 209° Southwest 460 529 34,000  Level Montreal Center
14:18 57.0167 -69.8333 216° Southwest 460 529 34,000  Level Montreal Center
14:19 56.9000 -69.9833 215° Southwest 460 529 34,000  Level Montreal Center
14:20 56.8000 -70.1167 216° Southwest 460 529 34,000  Level Montreal Center
14:21 56.7000 -70.2500 216° Southwest 460 529 34,000  Level Montreal Center
14:22 56.6000 -70.4000 220° Southwest 460 529 34,000  Level Montreal Center
14:23 56.4833 -70.5333 212° Southwest 460 529 34,000  Level Montreal Center
14:24 56.3833 -70.6333 209° Southwest 460 529 34,000  Level Montreal Center
14:25 56.2833 -70.7667 217° Southwest 460 529 34,000  Level Montreal Center
14:26 56.1833 -70.9167 220° Southwest 450 518 34,000  Level Montreal Center
14:27 56.0667 -71.0167 206° Southwest 450 518 34,000  Level Montreal Center
14:28 55.9500 -71.1500 213° Southwest 450 518 34,000  Level Montreal Center
14:29 55.8667 -71.2833 222° Southwest 450 518 34,000  Level Montreal Center
14:30 55.7500 -71.4167 213° Southwest 460 529 34,000  Level Montreal Center
14:31 55.6500 -71.5500 217° Southwest 450 518 34,000  Level Montreal Center
14:32 55.5333 -71.6500 206° Southwest 450 518 34,000  Level Montreal Center
14:33 55.4333 -71.7833 217° Southwest 450 518 34,000  Level Montreal Center
14:34 55.3333 -71.9000 214° Southwest 450 518 34,000  Level Montreal Center
14:35 55.2333 -72.0333 217° Southwest 450 518 34,000  Level Montreal Center
14:36 55.1167 -72.1333 206° Southwest 450 518 34,000  Level Montreal Center
14:37 55.0167 -72.2667 217° Southwest 450 518 34,000  Level Montreal Center
14:38 54.9000 -72.3833 210° Southwest 450 518 34,000  Level Montreal Center
14:39 54.7833 -72.5167 213° Southwest 450 518 34,000  Level Montreal Center
14:40 54.6833 -72.6333 214° Southwest 450 518 34,000  Level Montreal Center
14:41 54.5833 -72.7333 210° Southwest 450 518 34,000  Level Montreal Center
14:42 54.4833 -72.8667 218° Southwest 450 518 34,000  Level Montreal Center
14:43 54.3667 -72.9833 210° Southwest 450 518 34,000  Level Montreal Center
14:44 54.2667 -73.1167 218° Southwest 450 518 34,000  Level Montreal Center
14:45 54.1667 -73.2000 206° Southwest 450 518 34,000  Level Montreal Center
14:46 54.0500 -73.3167 210° Southwest 460 529 34,000  Level Montreal Center
14:47 53.9333 -73.4500 214° Southwest 460 529 34,000  Level Montreal Center
14:48 53.8333 -73.5667 215° Southwest 460 529 34,000  Level Montreal Center
14:49 53.7167 -73.6833 211° Southwest 460 529 34,000  Level Montreal Center
14:50 53.6167 -73.7833 211° Southwest 460 529 34,000  Level Montreal Center
14:51 53.4833 -73.8667 200° South 460 529 34,000  Level Montreal Center
14:52 53.3667 -73.9833 211° Southwest 460 529 34,000  Level Montreal Center
14:53 53.2500 -74.0833 207° Southwest 460 529 34,000  Level Montreal Center
14:54 53.1500 -74.1667 207° Southwest 460 529 34,000  Level Montreal Center
14:55 53.0333 -74.2500 203° Southwest 460 529 34,000  Level Montreal Center
14:56 52.9167 -74.3500 207° Southwest 460 529 34,000  Level Montreal Center
14:57 52.8167 -74.4667 215° Southwest 460 529 34,000  Level Montreal Center
14:58 52.7000 -74.5500 203° Southwest 470 541 34,000 300 Level Montreal Center
14:59 52.5500 -74.6333 199° South 470 541 34,700 720 Climbing Montreal Center
15:00 52.4500 -74.7167 207° Southwest 470 541 35,500 600 Climbing Montreal Center
15:01 52.3167 -74.8333 208° Southwest 470 541 36,000 240 Climbing Montreal Center
15:02 52.2000 -74.9167 204° Southwest 490 564 36,000  Level Montreal Center
15:03 52.0833 -75.0333 212° Southwest 480 552 36,000  Level Montreal Center
15:04 51.9667 -75.1167 204° Southwest 470 541 36,000  Level Montreal Center
15:05 51.8333 -75.2000 201° Southwest 480 552 36,000  Level Montreal Center
15:06 51.7167 -75.3167 212° Southwest 480 552 36,000  Level Montreal Center
15:07 51.6000 -75.4000 204° Southwest 470 541 36,000  Level Montreal Center
15:08 51.4833 -75.4833 204° Southwest 480 552 36,000  Level Montreal Center
15:09 51.3667 -75.5833 208° Southwest 480 552 36,000  Level Montreal Center
15:10 51.2333 -75.6667 201° Southwest 480 552 36,000  Level Montreal Center
15:11 51.1167 -75.7500 204° Southwest 480 552 36,000  Level Montreal Center
15:12 51.0000 -75.8500 208° Southwest 490 564 36,000  Level Montreal Center
15:13 50.8667 -75.9333 202° Southwest 490 564 36,000  Level Montreal Center
15:14 50.7500 -76.0500 212° Southwest 490 564 36,000  Level Montreal Center
15:15 50.6333 -76.1167 200° South 490 564 36,000  Level Montreal Center
15:16 50.5000 -76.2333 209° Southwest 490 564 36,000  Level Montreal Center
15:17 50.3833 -76.3167 204° Southwest 490 564 36,000  Level Montreal Center
15:18 50.2500 -76.4167 206° Southwest 490 564 36,000  Level Montreal Center
15:19 50.1333 -76.4833 200° South 490 564 36,000  Level Montreal Center
15:20 49.9833 -76.6000 207° Southwest 490 564 36,000  Level Montreal Center
15:21 49.8667 -76.6667 200° South 490 564 36,000  Level Montreal Center
15:22 49.7500 -76.7500 205° Southwest 490 564 36,000  Level Montreal Center
15:23 49.6167 -76.8500 206° Southwest 490 564 36,000  Level Montreal Center
15:24 49.5000 -76.9167 200° South 480 552 36,000  Level Montreal Center
15:25 49.3667 -77.0167 206° Southwest 510 587 36,000  Level Montreal Center
15:26 49.2500 -77.1000 205° Southwest 480 552 36,000  Level Montreal Center
15:27 49.1167 -77.2000 206° Southwest 490 564 36,000  Level Montreal Center
15:28 49.0000 -77.2667 201° Southwest 500 575 36,000  Level Montreal Center
15:29 48.8500 -77.3667 204° Southwest 490 564 36,000  Level Montreal Center
15:30 48.7333 -77.4500 205° Southwest 490 564 36,000  Level Montreal Center
15:36 48.0340 -77.9040 205° Southwest 497 572 36,000  Level FlightAware
15:36 47.9540 -77.9500 201° Southwest 496 571 36,000  Level FlightAware
15:37 47.8460 -78.0140 202° Southwest 497 572 36,000  Level FlightAware
15:38 47.7780 -78.0520 201° Southwest 497 572 36,000  Level FlightAware
15:39 47.6650 -78.1180 201° Southwest 499 574 36,000  Level FlightAware
15:39 47.5850 -78.1640 201° Southwest 498 573 36,000  Level FlightAware
15:40 47.4820 -78.2240 201° Southwest 496 571 36,000  Level FlightAware
15:41 47.3960 -78.2730 201° Southwest 497 572 36,000  Level FlightAware
15:41 47.3260 -78.3130 201° Southwest 498 573 36,000  Level FlightAware
15:42 47.2340 -78.3650 201° Southwest 497 572 36,000  Level FlightAware
15:43 47.1370 -78.4200 201° Southwest 498 573 36,000  Level FlightAware
15:43 47.0610 -78.4630 201° Southwest 497 572 36,000  Level FlightAware
15:44 46.9710 -78.5130 201° Southwest 496 571 36,000  Level FlightAware
15:45 46.8230 -78.5960 201° Southwest 495 570 36,000  Level FlightAware
15:46 46.7360 -78.6450 201° Southwest 496 571 36,000  Level FlightAware
15:47 46.6510 -78.6920 201° Southwest 496 571 36,000  Level FlightAware
15:47 46.5510 -78.7470 201° Southwest 498 573 36,000  Level FlightAware
15:48 46.4650 -78.7940 201° Southwest 500 575 36,000  Level FlightAware
15:49 46.3750 -78.8440 201° Southwest 501 577 36,000  Level FlightAware
15:49 46.2930 -78.8890 201° Southwest 502 578 36,000  Level FlightAware
15:50 46.1900 -78.9450 201° Southwest 501 577 36,000  Level FlightAware
15:51 46.1010 -78.9930 201° Southwest 501 577 36,000  Level FlightAware
15:51 46.0150 -79.0400 201° Southwest 500 575 36,000  Level FlightAware
15:52 45.9200 -79.0910 200° South 495 570 36,000  Level FlightAware
15:53 45.8380 -79.1350 200° South 490 564 36,000  Level FlightAware
15:54 45.7450 -79.1850 201° Southwest 477 549 36,000  Level FlightAware
15:54 45.6700 -79.2250 200° South 470 541 36,000  Level FlightAware
15:55 45.5700 -79.2780 200° South 472 543 36,000  Level FlightAware
15:56 45.4880 -79.3220 201° Southwest 479 551 36,000  Level FlightAware
15:56 45.3960 -79.3700 200° South 475 547 36,000  Level FlightAware
15:57 45.3110 -79.4150 200° South 471 542 36,000  Level FlightAware
15:58 45.2240 -79.4610 200° South 475 547 36,000  Level FlightAware
15:58 45.1530 -79.4980 200° South 477 549 36,000  Level FlightAware
15:59 45.0680 -79.5420 200° South 477 549 36,000  Level FlightAware
16:00 44.9730 -79.5920 200° South 477 549 36,000  Level FlightAware
16:01 44.8820 -79.6390 200° South 476 548 36,000  Level FlightAware
16:01 44.8000 -79.6820 200° South 477 549 36,000  Level FlightAware
16:02 44.7330 -79.7160 200° South 478 550 36,000  Level FlightAware
16:02 44.6500 -79.7590 200° South 480 552 36,000  Level FlightAware
16:03 44.5530 -79.8190 204° Southwest 479 551 36,000  Level FlightAware
16:04 44.4880 -79.8760 212° Southwest 478 550 36,000  Level FlightAware
16:05 44.4050 -79.9520 213° Southwest 476 548 36,000  Level FlightAware
16:05 44.3320 -80.0190 213° Southwest 473 544 36,000  Level FlightAware
16:06 44.2600 -80.0830 212° Southwest 472 543 36,000  Level FlightAware
16:07 44.1810 -80.1540 213° Southwest 473 544 36,000  Level FlightAware
16:07 44.1010 -80.2240 212° Southwest 477 549 36,000  Level FlightAware
16:08 44.0200 -80.2960 213° Southwest 481 554 36,000  Level FlightAware
16:09 43.9470 -80.3610 213° Southwest 481 554 36,000  Level FlightAware
16:09 43.8870 -80.4140 212° Southwest 480 552 36,000  Level FlightAware
16:10 43.7960 -80.4940 212° Southwest 476 548 36,000  Level FlightAware
16:10 43.7670 -80.5200 213° Southwest 476 548 36,000  Level FlightAware
16:11 43.6910 -80.5850 212° Southwest 476 548 36,000  Level FlightAware
16:12 43.6140 -80.6530 213° Southwest 478 550 36,000  Level FlightAware
16:13 43.5170 -80.7370 212° Southwest 478 550 36,000  Level FlightAware
16:13 43.4350 -80.8080 212° Southwest 479 551 36,000  Level FlightAware
16:14 43.3580 -80.8750 212° Southwest 484 557 36,000 600 Level FlightAware
16:15 43.2550 -80.9630 212° Southwest 483 556 37,000 1,200 Climbing FlightAware
16:16 43.1810 -81.0270 212° Southwest 478 550 37,900 660 Climbing FlightAware
16:16 43.0950 -81.1000 212° Southwest 487 560 38,000 60 Climbing FlightAware
16:17 43.0150 -81.1610 209° Southwest 490 564 38,000  Level FlightAware
16:18 42.9310 -81.2130 204° Southwest 487 560 38,000  Level FlightAware
16:18 42.8530 -81.2630 205° Southwest 488 562 38,000  Level FlightAware
16:19 42.7690 -81.3150 204° Southwest 488 562 38,000  Level FlightAware
16:20 42.6880 -81.3650 204° Southwest 489 563 38,000  Level FlightAware
16:20 42.5920 -81.4230 204° Southwest 492 566 38,000  Level FlightAware
16:21 42.5130 -81.4720 205° Southwest 494 568 38,000  Level FlightAware
16:22 42.4180 -81.5290 204° Southwest 493 567 38,000  Level FlightAware
16:22 42.3340 -81.5800 204° Southwest 491 565 38,000  Level FlightAware
16:23 42.2440 -81.6350 204° Southwest 490 564 38,000  Level FlightAware
16:24 42.1530 -81.6900 204° Southwest 491 565 38,000  Level FlightAware
16:25 42.0570 -81.7470 204° Southwest 491 565 38,000  Level FlightAware
16:25 41.9780 -81.7950 204° Southwest 491 565 38,000  Level FlightAware
16:26 41.8880 -81.8490 204° Southwest 490 564 38,000  Level FlightAware
16:27 41.8020 -81.9000 204° Southwest 489 563 38,000  Level FlightAware
16:27 41.7150 -81.9520 204° Southwest 491 565 38,000  Level FlightAware
16:28 41.6230 -82.0060 204° Southwest 494 568 38,000  Level FlightAware
16:29 41.5380 -82.0560 204° Southwest 496 571 38,000  Level FlightAware
16:29 41.4470 -82.1100 204° Southwest 497 572 38,000  Level FlightAware
16:30 41.3650 -82.1560 203° Southwest 497 572 38,000  Level FlightAware
16:31 41.2670 -82.1910 195° South 500 575 38,000  Level FlightAware
16:32 41.1410 -82.1970 182° South 509 586 38,000  Level FlightAware
16:33 41.0380 -82.1950 179° South 509 586 38,000  Level FlightAware
16:33 40.9400 -82.1930 179° South 512 589 38,000  Level FlightAware
16:34 40.8480 -82.1920 180° South 513 590 38,000  Level FlightAware
16:34 40.7580 -82.1910 180° South 515 593 38,000  Level FlightAware
16:35 40.6580 -82.1890 179° South 512 589 38,000  Level FlightAware
16:36 40.5970 -82.1760 171° South 513 590 38,000  Level FlightAware
16:36 40.4970 -82.1450 167° South 516 594 38,000  Level FlightAware
16:37 40.3930 -82.1120 166° South 516 594 38,000  Level FlightAware
16:38 40.3090 -82.0890 168° South 515 593 38,000  Level FlightAware
16:38 40.2020 -82.0570 167° South 517 595 38,000  Level FlightAware
16:39 40.1130 -82.0260 165° South 509 586 38,000  Level FlightAware
16:40 40.0310 -81.9960 164° South 498 573 38,000  Level FlightAware
16:40 39.9300 -81.9550 163° South 504 580 38,000  Level FlightAware
16:41 39.8480 -81.9210 162° South 514 592 38,000  Level FlightAware
16:42 39.7620 -81.8850 162° South 510 587 38,000  Level FlightAware
16:42 39.6620 -81.8450 163° South 507 583 38,000  Level FlightAware
16:43 39.5670 -81.8080 163° South 510 587 38,000  Level FlightAware
16:44 39.4720 -81.7770 166° South 516 594 38,000  Level FlightAware
16:45 39.3780 -81.7480 167° South 516 594 38,000  Level FlightAware
16:45 39.2500 -81.7430 178° South 499 574 38,000  Level FlightAware
16:46 39.1620 -81.7960 205° Southwest 494 568 38,000  Level FlightAware
16:47 39.0870 -81.8470 208° Southwest 500 575 38,000  Level FlightAware
16:48 38.9890 -81.9130 208° Southwest 497 572 38,000  Level FlightAware
16:48 38.9110 -81.9660 208° Southwest 495 570 38,000  Level FlightAware
16:49 38.8210 -82.0270 208° Southwest 494 568 38,000  Level FlightAware
16:50 38.7320 -82.0870 208° Southwest 495 570 38,000  Level FlightAware
16:51 38.6200 -82.1630 208° Southwest 499 574 38,000  Level FlightAware
16:52 38.4990 -82.2430 207° Southwest 500 575 38,000  Level FlightAware
16:52 38.4180 -82.2970 208° Southwest 500 575 38,000  Level FlightAware
16:53 38.3399 -82.3480 207° Southwest 501 577 38,000  Level FlightAware ADS-B
16:54 38.2570 -82.4020 207° Southwest 501 577 38,000  Level FlightAware
16:54 38.2419 -82.4125 209° Southwest 502 578 38,000  Level FlightAware ADS-B
16:54 38.1750 -82.4560 207° Southwest 500 575 38,000  Level FlightAware
16:55 38.1294 -82.4863 208° Southwest 501 577 38,000  Level FlightAware ADS-B
16:55 38.0150 -82.5610 207° Southwest 503 579 38,000  Level FlightAware
16:56 37.9864 -82.5797 207° Southwest 503 579 38,000  Level FlightAware ADS-B
16:56 37.9117 -82.6283 207° Southwest 504 580 38,000  Level FlightAware ADS-B
16:57 37.8416 -82.6739 207° Southwest 505 581 38,000  Level FlightAware ADS-B
16:58 37.7580 -82.7280 207° Southwest 504 580 38,000  Level FlightAware
16:58 37.6720 -82.7830 207° Southwest 503 579 38,000  Level FlightAware
16:59 37.5850 -82.8400 207° Southwest 503 579 38,000  Level FlightAware
17:00 37.4970 -82.8960 207° Southwest 503 579 38,000  Level FlightAware
17:00 37.3926 -82.9632 207° Southwest 502 578 38,000  Level FlightAware ADS-B
17:01 37.3273 -83.0050 207° Southwest 501 577 38,000  Level FlightAware ADS-B
17:02 37.2590 -83.0486 207° Southwest 502 578 38,000  Level FlightAware ADS-B
17:02 37.1712 -83.1046 207° Southwest 503 579 38,000  Level FlightAware ADS-B
17:03 37.1054 -83.1463 207° Southwest 503 579 38,000  Level FlightAware ADS-B
17:03 37.0382 -83.1890 207° Southwest 503 579 38,000  Level FlightAware ADS-B
17:04 36.9666 -83.2343 207° Southwest 502 578 38,000  Level FlightAware ADS-B
17:04 36.9040 -83.2738 207° Southwest 501 577 38,000  Level FlightAware ADS-B
17:05 36.8392 -83.3146 207° Southwest 500 575 38,000  Level FlightAware ADS-B
17:05 36.7754 -83.3548 207° Southwest 499 574 38,000  Level FlightAware ADS-B
17:06 36.7129 -83.3940 207° Southwest 500 575 38,000  Level FlightAware ADS-B
17:06 36.6508 -83.4329 207° Southwest 500 575 38,000  Level FlightAware ADS-B
17:07 36.5883 -83.4720 207° Southwest 500 575 38,000  Level FlightAware ADS-B
17:07 36.5244 -83.5119 207° Southwest 500 575 38,000  Level FlightAware ADS-B
17:08 36.4571 -83.5539 207° Southwest 499 574 38,000  Level FlightAware ADS-B
17:09 36.3942 -83.5930 207° Southwest 499 574 38,000  Level FlightAware ADS-B
17:09 36.3315 -83.6319 207° Southwest 496 571 38,000  Level FlightAware ADS-B
17:10 36.2690 -83.6706 207° Southwest 494 568 38,000  Level FlightAware ADS-B
17:10 36.2064 -83.7095 207° Southwest 494 568 38,000  Level FlightAware ADS-B
17:11 36.1436 -83.7482 206° Southwest 492 566 38,000  Level FlightAware ADS-B
17:11 36.0821 -83.7861 206° Southwest 491 565 38,000  Level FlightAware ADS-B
17:12 36.0202 -83.8241 206° Southwest 490 564 38,000  Level FlightAware ADS-B
17:12 35.9595 -83.8607 206° Southwest 490 564 38,000  Level FlightAware ADS-B
17:12 35.9180 -83.8804 201° Southwest 490 564 38,000  Level FlightAware ADS-B
17:13 35.8546 -83.9034 196° South 488 562 38,000  Level FlightAware ADS-B
17:13 35.7873 -83.9207 192° South 487 560 38,000  Level FlightAware ADS-B
17:14 35.7108 -83.9410 192° South 485 558 38,000  Level FlightAware ADS-B
17:14 35.6450 -83.9580 192° South 484 557 38,000  Level FlightAware ADS-B
17:15 35.5559 -83.9798 191° South 483 556 38,000  Level FlightAware ADS-B
17:16 35.4882 -83.9961 191° South 482 555 38,000  Level FlightAware ADS-B
17:16 35.4123 -84.0144 191° South 479 551 38,000  Level FlightAware ADS-B
17:17 35.3446 -84.0307 191° South 478 550 38,000  Level FlightAware ADS-B
17:17 35.2746 -84.0476 191° South 479 551 38,000  Level FlightAware ADS-B
17:18 35.2087 -84.0634 191° South 480 552 38,000  Level FlightAware ADS-B
17:19 35.0700 -84.0966 191° South 479 551 38,000  Level FlightAware ADS-B
17:19 35.0050 -84.1121 191° South 476 548 38,000  Level FlightAware ADS-B
17:20 34.8922 -84.1391 191° South 476 548 38,000  Level FlightAware ADS-B
17:21 34.8359 -84.1544 193° South 476 548 38,000  Level FlightAware ADS-B
17:21 34.8185 -84.1628 202° Southwest 476 548 38,000  Level FlightAware ADS-B
17:21 34.8092 -84.1684 206° Southwest 477 549 38,000  Level FlightAware ADS-B
17:21 34.7484 -84.2119 210° Southwest 476 548 38,000  Level FlightAware ADS-B
17:22 34.6912 -84.2551 212° Southwest 478 550 38,000  Level FlightAware ADS-B
17:22 34.6345 -84.2995 213° Southwest 479 551 38,000  Level FlightAware ADS-B
17:23 34.5753 -84.3457 213° Southwest 480 552 38,000  Level FlightAware ADS-B
17:24 34.5188 -84.3905 213° Southwest 478 550 38,000  Level FlightAware ADS-B
17:24 34.4635 -84.4356 214° Southwest 479 551 38,000  Level FlightAware ADS-B
17:25 34.4075 -84.4814 214° Southwest 481 554 38,000  Level FlightAware ADS-B
17:25 34.3503 -84.5244 212° Southwest 479 551 38,000  Level FlightAware ADS-B
17:26 34.2560 -84.5850 208° Southwest 478 550 38,000  Level FlightAware
17:26 34.2308 -84.6003 207° Southwest 479 551 38,000  Level FlightAware ADS-B
17:27 34.1702 -84.6344 205° Southwest 478 550 38,000  Level FlightAware ADS-B
17:27 34.0900 -84.6570 193° South 471 542 38,000  Level FlightAware
17:28 33.9820 -84.6470 176° South 464 534 38,000 180 Level FlightAware
17:29 33.8800 -84.6390 176° South 469 540 38,300 480 Climbing FlightAware
17:30 33.7784 -84.6303 176° South 475 547 38,800 540 Climbing FlightAware ADS-B
17:30 33.7104 -84.6245 176° South 474 545 39,000 180 Climbing FlightAware ADS-B
17:31 33.6445 -84.6189 176° South 473 544 39,000  Level FlightAware ADS-B
17:31 33.5775 -84.6132 176° South 474 545 39,000  Level FlightAware ADS-B
17:32 33.5107 -84.6078 176° South 475 547 39,000  Level FlightAware ADS-B
17:32 33.4387 -84.6020 176° South 474 545 39,000  Level FlightAware ADS-B
17:33 33.3669 -84.5962 176° South 473 544 39,000  Level FlightAware ADS-B
17:33 33.2940 -84.5902 176° South 471 542 39,000  Level FlightAware ADS-B
17:34 33.2290 -84.5850 176° South 470 541 39,000  Level FlightAware
17:34 33.1760 -84.5806 176° South 469 540 39,000  Level FlightAware ADS-B
17:35 33.0610 -84.5710 176° South 470 541 39,000  Level FlightAware
17:36 32.9614 -84.5632 176° South 472 543 39,000  Level FlightAware ADS-B
17:36 32.8830 -84.5570 176° South 474 545 39,000  Level FlightAware
17:37 32.7990 -84.5500 176° South 477 549 39,000  Level FlightAware
17:38 32.7110 -84.5430 176° South 478 550 39,000  Level FlightAware
17:38 32.6240 -84.5360 176° South 477 549 39,000  Level FlightAware
17:39 32.5370 -84.5290 176° South 477 549 39,000  Level FlightAware
17:40 32.4420 -84.5210 176° South 478 550 39,000  Level FlightAware
17:40 32.3490 -84.5140 176° South 481 554 39,000  Level FlightAware
17:41 32.2570 -84.5070 176° South 483 556 39,000  Level FlightAware
17:42 32.1670 -84.5000 176° South 483 556 39,000  Level FlightAware
17:43 32.0680 -84.4920 176° South 481 554 39,000  Level FlightAware
17:43 31.9800 -84.4850 176° South 479 551 39,000  Level FlightAware
17:44 31.8910 -84.4780 176° South 479 551 39,000  Level FlightAware
17:44 31.8270 -84.4720 175° South 479 551 39,000  Level FlightAware
17:46 31.6950 -84.4620 176° South 479 551 39,000  Level FlightAware
17:46 31.6280 -84.4560 176° South 479 551 39,000  Level FlightAware
17:47 31.5110 -84.4470 176° South 479 551 39,000  Level FlightAware
17:48 31.4450 -84.4410 176° South 479 551 39,000  Level FlightAware
17:48 31.3780 -84.4360 176° South 479 551 39,000  Level FlightAware
17:50 31.1540 -84.4200 177° South 469 540 39,000  Level FlightAware
17:50 31.0510 -84.4120 176° South 468 539 39,000  Level FlightAware
17:51 30.9670 -84.4050 176° South 468 539 39,000  Level FlightAware
17:52 30.8570 -84.3960 176° South 468 539 39,000  Level FlightAware
17:53 30.7490 -84.3890 177° South 466 536 39,000  Level FlightAware
17:54 30.6350 -84.3770 175° South 466 536 39,000  Level FlightAware
17:54 30.5470 -84.3540 167° South 466 536 39,000  Level FlightAware
17:56 30.4000 -84.2720 154° Southeast 463 533 39,000  Level FlightAware
17:56 30.3220 -84.2200 150° Southeast 463 533 39,000  Level FlightAware
17:57 30.2480 -84.1720 151° Southeast 462 532 39,000  Level FlightAware
17:58 30.1660 -84.1180 150° Southeast 463 533 39,000  Level FlightAware
17:58 30.0670 -84.0540 151° Southeast 463 533 39,000  Level FlightAware
17:59 29.9810 -83.9980 151° Southeast 465 535 39,000  Level FlightAware
17:59 29.9650 -83.9880 152° Southeast 465 535 39,000  Level FlightAware
18:00 29.8490 -83.9130 151° Southeast 460 529 39,000  Level FlightAware
18:01 29.7540 -83.8510 150° Southeast 460 529 39,000  Level FlightAware
18:02 29.6890 -83.8100 151° Southeast 460 529 39,000  Level FlightAware
18:02 29.6120 -83.7600 151° Southeast 463 533 39,000  Level FlightAware
18:03 29.5380 -83.7130 151° Southeast 462 532 39,000  Level FlightAware
18:04 29.4610 -83.6630 151° Southeast 462 532 39,000  Level FlightAware
18:04 29.3850 -83.6150 151° Southeast 463 533 39,000  Level FlightAware
18:05 29.3100 -83.5660 150° Southeast 464 534 39,000  Level FlightAware
18:06 29.2330 -83.5170 151° Southeast 465 535 39,000  Level FlightAware
18:07 29.1470 -83.4620 151° Southeast 465 535 39,000  Level FlightAware
18:07 29.0710 -83.4140 151° Southeast 464 534 39,000  Level FlightAware
18:08 28.9850 -83.3590 151° Southeast 462 532 39,000  Level FlightAware
18:08 28.9280 -83.3230 151° Southeast 461 531 39,000  Level FlightAware
18:09 28.8620 -83.2820 151° Southeast 459 528 39,000  Level FlightAware
18:10 28.7870 -83.2340 151° Southeast 463 533 39,000  Level FlightAware
18:10 28.7120 -83.1870 151° Southeast 461 531 39,000  Level FlightAware
18:11 28.6360 -83.1390 151° Southeast 457 526 39,000  Level FlightAware
18:12 28.5080 -83.0580 151° Southeast 457 526 39,000  Level FlightAware
18:13 28.4250 -83.0070 152° Southeast 456 525 39,000  Level FlightAware
18:14 28.3330 -82.9490 151° Southeast 458 527 39,000  Level FlightAware
18:14 28.2670 -82.9080 151° Southeast 461 531 39,000  Level FlightAware
18:15 28.1970 -82.8640 151° Southeast 463 533 39,000  Level FlightAware
18:17 27.9870 -82.7320 151° Southeast 461 531 39,000  Level FlightAware
18:18 27.8160 -82.6240 151° Southeast 456 525 39,000  Level FlightAware
18:19 27.7430 -82.5740 149° Southeast 454 522 39,000  Level FlightAware
18:20 27.6730 -82.5270 149° Southeast 453 521 39,000  Level FlightAware
18:20 27.5990 -82.4780 150° Southeast 448 516 39,000  Level FlightAware
18:21 27.5180 -82.4250 150° Southeast 451 519 39,000  Level FlightAware
18:22 27.4450 -82.3760 149° Southeast 452 520 39,000  Level FlightAware
18:23 27.3640 -82.3230 150° Southeast 452 520 39,000  Level FlightAware
18:23 27.2910 -82.2740 149° Southeast 451 519 39,000  Level FlightAware
18:24 27.2240 -82.2300 150° Southeast 451 519 39,000  Level FlightAware
18:25 27.1400 -82.1750 150° Southeast 450 518 39,000  Level FlightAware
18:25 27.0590 -82.1220 150° Southeast 450 518 39,000  Level FlightAware
18:26 26.9970 -82.0810 149° Southeast 451 519 39,000  Level FlightAware
18:27 26.9010 -82.0390 159° South 451 519 39,000  Level FlightAware
18:27 26.8220 -82.0480 186° South 454 522 39,000  Level FlightAware
18:28 26.7260 -82.0640 188° South 456 525 39,000  Level FlightAware
18:29 26.6300 -82.0800 188° South 458 527 39,000  Level FlightAware
18:30 26.5460 -82.0950 189° South 459 528 39,000  Level FlightAware
18:30 26.4590 -82.1090 188° South 458 527 39,000  Level FlightAware
18:31 26.3730 -82.1240 189° South 457 526 39,000  Level FlightAware
18:32 26.2750 -82.1410 189° South 456 525 39,000  Level FlightAware
18:32 26.2010 -82.1530 188° South 457 526 39,000  Level FlightAware
18:33 26.1160 -82.1670 188° South 458 527 39,000  Level FlightAware
18:34 26.0200 -82.1840 189° South 457 526 39,000  Level FlightAware
18:34 25.9460 -82.1960 188° South 458 527 39,000  Level FlightAware
18:35 25.8490 -82.2130 189° South 468 539 39,000  Level FlightAware
18:36 25.7700 -82.2260 188° South 468 539 39,000  Level FlightAware
18:37 25.6570 -82.2450 189° South 455 524 39,000  Level FlightAware
18:37 25.5420 -82.2640 188° South 442 509 39,000  Level FlightAware
18:38 25.4470 -82.2800 189° South 441 507 39,000  Level FlightAware
18:39 25.3130 -82.3020 188° South 457 526 39,000  Level FlightAware
18:40 25.1960 -82.3220 189° South 456 525 39,000 -720 Level FlightAware
18:41 25.0580 -82.3450 189° South 471 542 37,700 -1,740 Descending FlightAware
18:42 24.9480 -82.3630 188° South 36,000 -1,980 Descending FlightAware
18:43 24.8240 -82.3840 189° South 469 540 34,200 -1,440 Descending FlightAware
18:44 24.7070 -82.4020 188° South 456 525 33,200 -1,200 Descending FlightAware
18:45 24.5650 -82.4250 188° South 456 525 31,500 -960 Descending FlightAware
18:46 24.5010 -82.4350 188° South 456 525 31,500 -2,640 Level FlightAware
18:47 24.3540 -82.4610 189° South 435 501 27,400 -3,120 Descending FlightAware
18:48 24.2640 -82.4760 189° South 435 501 26,100 -960 Descending FlightAware
18:48 24.1980 -82.4860 188° South 435 501 26,100  Level FlightAware
18:49 24.1390 -82.4950 188° South 435 501 26,100  Level FlightAware
18:50 24.0590 -82.5070 188° South 435 501 26,100  Level FlightAware
18:50 23.9980 -82.5170 189° South 435 501 26,100  Level FlightAware
18:51 23.9370 -82.5260 188° South 435 501 26,100  Level FlightAware
18:57 23.2257 -82.4176 175° South  Level FlightAware Approximate
18:58 23.0996 -82.4099 170° South  Level FlightAware Approximate
18:59 22.9891 -82.4091 180° South  Level Estimated
19:00 22.9891 -82.4091 180° South  Level Estimated
19:01 22.9891 -82.4091 180° South  Level Estimated
19:02 22.9891 -82.4091 180° South  Level Estimated
19:03 22.9891 -82.4091 180° South  Level Estimated
19:04 22.9891 -82.4091 180° South  Level Estimated
19:05 22.9891 -82.4091 180° South  Level Estimated
19:06 22.9891 -82.4091 180° South  Level Estimated
19:07 22.9891 -82.4091 180° South  Level Estimated
19:08 22.9891 -82.4091 180° South  Level Estimated
19:09 22.9891 -82.4091 180° South  Level Estimated
19:10 22.9891 -82.4091 180° South  Level Estimated
19:11 22.9891 -82.4091 180° South  Level Estimated
19:12 22.9891 -82.4091 180° South  Level Estimated
19:13 22.9891 -82.4091 180° South  Level Estimated
19:14 22.9891 -82.4091 180° South  Level Estimated
19:15 22.9891 -82.4091 180° South  Level Estimated
19:16 22.9891 -82.4091 180° South  Level Estimated
19:17 22.9891 -82.4091 180° South  Level Estimated
19:18 22.9891 -82.4091 180° South  Level Estimated
19:19 22.9891 -82.4091 180° South  Level Estimated
19:20 22.9891 -82.4091 180° South  Level Estimated
19:21 22.9891 -82.4091 180° South  Level Estimated
19:22 22.9891 -82.4091 180° South  Level Estimated
19:23 22.9891 -82.4091 180° South  Level Estimated
19:24 22.9891 -82.4091 180° South  Level Estimated
19:25 22.9891 -82.4091 180° South  Level Estimated
19:26 22.9891 -82.4091 180° South  Level Estimated
19:27 22.9891 -82.4091 180° South  Level Estimated
19:28 22.9891 -82.4091 180° South  Level Estimated
19:29 22.9891 -82.4091 180° South  Level Estimated